createdAt,value
2019-01-30T00:03:46.030Z,-1.24
2019-01-30T00:09:08.293Z,-1.10
2019-01-30T00:14:28.507Z,-1.05
2019-01-30T00:19:49.032Z,-1.09
2019-01-30T00:25:10.075Z,-1.08
2019-01-30T00:30:31.039Z,-1.15
2019-01-30T00:35:53.575Z,-1.28
2019-01-30T00:41:14.519Z,-1.30
2019-01-30T00:46:35.215Z,-1.30
2019-01-30T00:51:56.243Z,-1.51
2019-01-30T00:57:16.452Z,-1.42
2019-01-30T01:02:37.796Z,-1.34
2019-01-30T01:07:58.295Z,-1.47
2019-01-30T01:13:19.216Z,-1.78
2019-01-30T01:18:39.787Z,-2.13
2019-01-30T01:24:00.465Z,-2.27
2019-01-30T01:29:20.927Z,-2.29
2019-01-30T01:34:41.584Z,-2.29
2019-01-30T01:40:02.987Z,-2.18
2019-01-30T01:45:23.854Z,-1.94
2019-01-30T01:50:44.644Z,-2.09
2019-01-30T01:56:05.455Z,-2.06
2019-01-30T02:01:26.284Z,-2.10
2019-01-30T02:06:46.734Z,-2.16
2019-01-30T02:12:07.431Z,-2.25
2019-01-30T02:17:27.670Z,-2.35
2019-01-30T02:22:48.270Z,-2.37
2019-01-30T02:28:09.022Z,-2.23
2019-01-30T02:33:29.829Z,-2.38
2019-01-30T02:38:50.286Z,-2.38
2019-01-30T02:44:11.109Z,-2.41
2019-01-30T02:49:31.667Z,-2.25
2019-01-30T02:54:52.438Z,-2.46
2019-01-30T03:00:18.881Z,-2.48
2019-01-30T03:05:39.447Z,-2.53
2019-01-30T03:11:00.253Z,-2.42
2019-01-30T03:16:20.666Z,-2.51
2019-01-30T03:21:40.951Z,-2.73
2019-01-30T03:27:01.681Z,-2.89
2019-01-30T03:32:23.579Z,-2.93
2019-01-30T03:37:44.605Z,-2.63
2019-01-30T03:43:05.220Z,-2.69
2019-01-30T03:48:26.143Z,-2.89
2019-01-30T03:53:46.552Z,-2.90
2019-01-30T03:59:08.671Z,-2.88
2019-01-30T04:04:29.631Z,-3.02
2019-01-30T04:09:50.336Z,-2.97
2019-01-30T04:15:11.147Z,-2.97
2019-01-30T04:20:31.465Z,-3.04
2019-01-30T04:25:52.050Z,-3.15
2019-01-30T04:31:12.695Z,-2.95
2019-01-30T04:36:33.321Z,-2.92
2019-01-30T04:41:54.057Z,-2.76
2019-01-30T04:47:14.798Z,-2.86
2019-01-30T04:52:35.466Z,-2.69
2019-01-30T04:57:58.218Z,-2.66
2019-01-30T05:03:18.955Z,-2.81
2019-01-30T05:08:39.520Z,-2.66
2019-01-30T05:14:01.511Z,-2.64
2019-01-30T05:19:22.178Z,-2.45
2019-01-30T05:24:43.168Z,-2.50
2019-01-30T05:30:08.555Z,-2.45
2019-01-30T05:35:29.665Z,-2.39
2019-01-30T05:40:53.688Z,-2.40
2019-01-30T05:46:14.226Z,-2.48
2019-01-30T05:51:34.706Z,-2.40
2019-01-30T05:56:56.572Z,-2.44
2019-01-30T06:02:17.203Z,-2.42
2019-01-30T06:07:38.107Z,-2.26
2019-01-30T06:12:58.649Z,-2.33
2019-01-30T06:18:19.361Z,-2.25
2019-01-30T06:23:40.030Z,-2.23
2019-01-30T06:29:00.498Z,-2.27
2019-01-30T06:34:21.293Z,-2.04
2019-01-30T06:39:42.003Z,-2.13
2019-01-30T06:45:03.691Z,-2.08
2019-01-30T06:50:24.317Z,-2.07
2019-01-30T06:55:44.830Z,-1.99
2019-01-30T07:01:06.849Z,-1.96
2019-01-30T07:06:27.149Z,-1.91
2019-01-30T07:11:47.812Z,-1.81
2019-01-30T07:17:09.449Z,-1.73
2019-01-30T07:22:30.374Z,-1.76
2019-01-30T07:27:51.006Z,-1.67
2019-01-30T07:33:11.640Z,-1.53
2019-01-30T07:38:32.434Z,-1.38
2019-01-30T07:43:52.912Z,-1.21
2019-01-30T07:49:13.362Z,-1.12
2019-01-30T07:54:33.874Z,-0.95
2019-01-30T07:59:54.190Z,-0.84
2019-01-30T08:05:16.165Z,-0.88
2019-01-30T08:10:36.965Z,-0.86
2019-01-30T08:15:57.540Z,-0.73
2019-01-30T08:21:18.082Z,-0.72
2019-01-30T08:26:39.039Z,-0.71
2019-01-30T08:31:59.943Z,-0.65
2019-01-30T08:37:20.285Z,-0.50
2019-01-30T08:42:22.189Z,-0.43
2019-01-30T08:47:24.520Z,-0.28
2019-01-30T08:52:26.456Z,-0.24
2019-01-30T08:57:28.561Z,-0.25
2019-01-30T09:02:30.482Z,-0.06
2019-01-30T09:07:43.644Z,0.05
2019-01-30T09:12:36.796Z,-0.06
2019-01-30T09:17:38.926Z,-0.01
2019-01-30T09:22:41.197Z,0.18
2019-01-30T09:27:43.197Z,0.13
2019-01-30T09:32:45.420Z,0.41
2019-01-30T09:37:47.901Z,0.63
2019-01-30T09:42:49.806Z,0.72
2019-01-30T09:47:53.099Z,0.62
2019-01-30T09:52:55.563Z,0.72
2019-01-30T09:57:58.696Z,0.98
2019-01-30T10:03:00.855Z,0.97
2019-01-30T10:08:04.988Z,1.14
2019-01-30T10:13:08.008Z,1.18
2019-01-30T10:18:12.953Z,1.23
2019-01-30T10:23:15.217Z,1.53
2019-01-30T10:28:17.368Z,1.68
2019-01-30T10:33:20.118Z,1.49
2019-01-30T10:38:22.225Z,1.77
2019-01-30T10:43:43.000Z,1.86
2019-01-30T10:49:03.737Z,1.82
2019-01-30T10:54:24.120Z,2.02
2019-01-30T10:59:44.684Z,1.91
2019-01-30T11:05:05.814Z,2.18
2019-01-30T11:10:26.428Z,2.29
2019-01-30T11:15:46.973Z,2.39
2019-01-30T11:21:07.743Z,2.89
2019-01-30T11:26:30.013Z,3.09
2019-01-30T11:31:50.553Z,3.27
2019-01-30T11:37:11.228Z,3.43
2019-01-30T11:42:32.090Z,3.89
2019-01-30T11:47:52.653Z,4.10
2019-01-30T11:53:13.185Z,4.23
2019-01-30T11:58:34.065Z,4.03
2019-01-30T12:03:54.425Z,4.00
2019-01-30T12:09:15.273Z,4.10
2019-01-30T12:14:36.096Z,4.27
2019-01-30T12:19:56.721Z,4.60
2019-01-30T12:25:17.621Z,4.97
2019-01-30T12:30:38.025Z,5.27
2019-01-30T12:35:58.476Z,5.59
2019-01-30T12:41:18.892Z,5.16
2019-01-30T12:46:39.652Z,4.60
2019-01-30T12:51:59.895Z,4.24
2019-01-30T12:57:20.466Z,3.91
2019-01-30T13:02:41.028Z,4.08
2019-01-30T13:08:01.720Z,3.91
2019-01-30T13:13:22.089Z,3.40
2019-01-30T13:18:42.779Z,3.14
2019-01-30T13:24:03.551Z,2.99
2019-01-30T13:29:24.050Z,2.92
2019-01-30T13:34:48.938Z,2.98
2019-01-30T13:40:11.720Z,2.64
2019-01-30T13:45:32.910Z,2.88
2019-01-30T13:50:54.453Z,2.68
2019-01-30T13:56:15.003Z,2.72
2019-01-30T14:01:36.832Z,2.61
2019-01-30T14:06:57.319Z,2.75
2019-01-30T14:12:17.810Z,2.91
2019-01-30T14:17:38.616Z,3.25
2019-01-30T14:22:59.675Z,3.37
2019-01-30T14:28:20.132Z,3.27
2019-01-30T14:33:40.685Z,3.50
2019-01-30T14:39:01.307Z,3.44
2019-01-30T14:44:21.686Z,3.50
2019-01-30T14:49:42.339Z,3.35
2019-01-30T14:55:03.881Z,3.08
2019-01-30T15:00:26.606Z,3.80
2019-01-30T15:05:47.444Z,4.74
2019-01-30T15:11:09.522Z,4.12
2019-01-30T15:16:30.383Z,3.38
2019-01-30T15:21:50.944Z,2.98
2019-01-30T15:27:11.946Z,2.70
2019-01-30T15:32:32.360Z,2.27
2019-01-30T15:37:53.112Z,2.17
2019-01-30T15:43:13.780Z,2.14
2019-01-30T15:48:34.494Z,1.96
2019-01-30T15:53:55.314Z,1.96
2019-01-30T15:59:15.764Z,1.84
2019-01-30T16:04:36.857Z,1.84
2019-01-30T16:09:57.279Z,1.67
2019-01-30T16:15:22.212Z,1.82
2019-01-30T16:20:42.718Z,1.85
2019-01-30T16:26:03.235Z,1.78
2019-01-30T16:31:23.892Z,1.68
2019-01-30T16:36:44.394Z,1.75
2019-01-30T16:42:05.006Z,1.75
2019-01-30T16:47:25.631Z,1.82
2019-01-30T16:52:46.351Z,1.92
2019-01-30T16:58:08.970Z,1.73
2019-01-30T17:03:29.695Z,1.82
2019-01-30T17:08:50.618Z,1.75
2019-01-30T17:14:12.558Z,1.68
2019-01-30T17:19:33.269Z,1.59
2019-01-30T17:24:53.885Z,1.47
2019-01-30T17:30:24.120Z,1.45
2019-01-30T17:35:47.046Z,1.58
2019-01-30T17:41:07.692Z,1.60
2019-01-30T17:46:28.290Z,1.76
2019-01-30T17:51:48.891Z,1.76
2019-01-30T17:57:10.560Z,1.81
2019-01-30T18:02:32.666Z,1.57
2019-01-30T18:07:53.839Z,1.41
2019-01-30T18:13:14.455Z,1.60
2019-01-30T18:18:35.091Z,1.46
2019-01-30T18:23:55.646Z,1.72
2019-01-30T18:29:16.329Z,1.78
2019-01-30T18:34:37.105Z,1.85
2019-01-30T18:39:57.690Z,1.89
2019-01-30T18:45:20.403Z,1.94
2019-01-30T18:50:41.777Z,1.80
2019-01-30T18:56:02.884Z,1.83
2019-01-30T19:01:23.617Z,1.88
2019-01-30T19:06:51.961Z,1.98
2019-01-30T19:12:08.736Z,2.00
2019-01-30T19:17:29.352Z,2.04
2019-01-30T19:22:49.931Z,1.91
2019-01-30T19:28:11.312Z,1.85
2019-01-30T19:33:32.213Z,1.91
2019-01-30T19:38:54.611Z,1.88
2019-01-30T19:44:15.597Z,2.01
2019-01-30T19:49:36.766Z,1.86
2019-01-30T19:54:57.770Z,1.82
2019-01-30T20:00:21.451Z,1.69
2019-01-30T20:05:42.438Z,1.54
2019-01-30T20:11:03.979Z,1.57
2019-01-30T20:16:25.883Z,1.69
2019-01-30T20:21:47.084Z,1.75
2019-01-30T20:27:08.378Z,1.87
2019-01-30T20:32:29.372Z,1.83
2019-01-30T20:37:50.777Z,1.88
2019-01-30T20:43:12.493Z,1.87
2019-01-30T20:48:45.232Z,1.86
2019-01-30T20:54:37.820Z,1.95
2019-01-30T20:59:59.268Z,1.96
2019-01-30T21:05:20.787Z,2.09
2019-01-30T21:10:41.795Z,2.12
2019-01-30T21:16:03.332Z,2.18
2019-01-30T21:21:24.479Z,2.24
2019-01-30T21:26:45.507Z,2.19
2019-01-30T21:32:06.563Z,2.17
2019-01-30T21:37:27.446Z,2.23
2019-01-30T21:42:48.189Z,2.18
2019-01-30T21:48:09.911Z,2.21
2019-01-30T21:53:30.630Z,2.17
2019-01-30T21:58:51.678Z,2.14
2019-01-30T22:04:12.451Z,2.23
2019-01-30T22:09:32.878Z,2.24
2019-01-30T22:14:53.780Z,2.19
2019-01-30T22:20:19.614Z,2.18
2019-01-30T22:25:40.276Z,2.15
2019-01-30T22:31:01.173Z,2.13
2019-01-30T22:36:21.754Z,2.20
2019-01-30T22:41:43.552Z,2.14
2019-01-30T22:47:04.240Z,2.18
2019-01-30T22:52:25.208Z,2.10
2019-01-30T22:57:45.797Z,2.13
2019-01-30T23:03:07.123Z,2.17
2019-01-30T23:08:37.705Z,2.04
2019-01-30T23:14:08.324Z,2.04
2019-01-30T23:19:34.174Z,2.04
2019-01-30T23:25:34.576Z,2.01
2019-01-30T23:31:17.614Z,1.91
2019-01-30T23:36:48.191Z,1.96
2019-01-30T23:43:05.296Z,1.89
2019-01-30T23:48:39.519Z,1.88
2019-01-30T23:54:25.855Z,1.91
